Time;durP1;ratioP1;P1;durP2;ratioP2;P2;SDS_P1;SDS_P2;PMS_P1;PMS_P2;Temp;Humidity;BMP_temperature;BMP_pressure;BME280_temperature;BME280_humidity;BME280_pressure;Samples;Min_cycle;Max_cycle;Signal;HPM_P1;HPM_P2
2022/01/04 00:00:50;;;;;;;49.63;9.63;;;;;;;13.42;67.33;99240.88;4934891;28;119921;-92
2022/01/04 00:03:20;;;;;;;47.55;9.57;;;;;;;13.34;66.09;99212.34;4918783;28;119709;-92
2022/01/04 00:05:45;;;;;;;53.50;9.50;;;;;;;13.38;65.90;99215.59;4911314;28;120060;-91
2022/01/04 00:08:14;;;;;;;60.70;10.20;;;;;;;12.93;66.08;99151.59;4917499;28;119352;-92
2022/01/04 00:10:43;;;;;;;58.70;10.18;;;;;;;13.15;67.88;99181.84;4913827;28;119830;-92
2022/01/04 00:13:25;;;;;;;48.28;9.07;;;;;;;13.25;67.82;99187.88;4906265;28;119562;-91
2022/01/04 00:15:55;;;;;;;50.35;9.70;;;;;;;13.42;66.96;99205.06;4943331;28;119773;-92
2022/01/04 00:18:21;;;;;;;53.55;8.88;;;;;;;13.47;67.64;99212.56;4949748;28;122737;-92
2022/01/04 00:20:48;;;;;;;55.60;8.93;;;;;;;13.11;66.68;99155.81;4938280;28;119542;-92
2022/01/04 00:23:15;;;;;;;56.22;9.25;;;;;;;13.17;66.41;99167.56;4917422;28;121185;-91
2022/01/04 00:25:42;;;;;;;56.17;9.32;;;;;;;13.33;67.06;99204.59;4917616;28;121933;-91
2022/01/04 00:28:08;;;;;;;47.75;8.35;;;;;;;12.85;67.25;99126.59;4922303;28;121269;-91
2022/01/04 00:30:38;;;;;;;47.17;9.05;;;;;;;13.29;68.49;99182.84;4917911;28;121798;-92
2022/01/04 00:33:07;;;;;;;41.97;8.07;;;;;;;13.05;68.39;99157.84;4919983;28;119320;-92
2022/01/04 00:35:33;;;;;;;50.30;8.05;;;;;;;13.21;69.09;99181.84;4934062;28;120194;-92
2022/01/04 00:38:00;;;;;;;50.65;9.27;;;;;;;12.94;69.66;99133.81;4932333;28;122054;-93
2022/01/04 00:40:27;;;;;;;51.33;8.95;;;;;;;13.20;69.08;99169.31;4900440;28;119583;-92
2022/01/04 00:42:58;;;;;;;48.35;8.85;;;;;;;13.04;67.47;99142.59;4900781;28;121067;-92
2022/01/04 00:45:25;;;;;;;46.30;8.73;;;;;;;13.23;67.92;99178.59;4934874;28;122030;-92
2022/01/04 00:50:21;;;;;;;50.83;8.85;;;;;;;13.21;68.11;99165.31;4933867;28;120440;-93
2022/01/04 00:52:47;;;;;;;58.88;9.10;;;;;;;13.23;67.27;99165.56;4917595;28;119493;-92
2022/01/04 00:55:13;;;;;;;49.40;8.82;;;;;;;13.01;67.57;99124.31;4921654;28;120512;-93
2022/01/04 00:57:41;;;;;;;55.25;8.40;;;;;;;13.16;68.31;99149.53;4915507;28;120260;-92
2022/01/04 01:00:10;;;;;;;55.70;9.43;;;;;;;13.31;68.59;99168.56;4933478;28;118776;-92
2022/01/04 01:02:36;;;;;;;83.32;30.38;;;;;;;13.11;68.10;99128.28;4928117;28;119106;-91
2022/01/04 01:05:02;;;;;;;56.90;12.98;;;;;;;13.23;66.95;99134.53;4916522;28;119867;-93
2022/01/04 01:07:28;;;;;;;51.30;10.23;;;;;;;13.24;66.28;99161.56;4931903;28;120045;-90
2022/01/04 01:12:31;;;;;;;19.52;4.88;;;;;;;13.23;66.83;99159.31;4916049;28;119477;-93
2022/01/04 01:14:58;;;;;;;21.35;4.85;;;;;;;12.84;68.09;99111.34;4913098;28;121334;-91
2022/01/04 01:17:23;;;;;;;9.00;2.47;;;;;;;13.13;66.38;99156.81;4929999;28;122543;-91
2022/01/04 01:19:49;;;;;;;12.13;2.90;;;;;;;12.79;66.25;99111.38;4916380;28;120148;-91
2022/01/04 01:22:15;;;;;;;9.52;2.47;;;;;;;13.06;65.87;99156.59;4913837;28;122326;-91
2022/01/04 01:24:41;;;;;;;12.63;2.75;;;;;;;12.87;64.73;99150.88;4947806;28;120596;-91
2022/01/04 01:27:06;;;;;;;12.68;3.25;;;;;;;12.69;66.17;99132.13;4932092;28;120743;-92
2022/01/04 01:29:32;;;;;;;10.52;2.60;;;;;;;12.66;65.79;99141.38;4914824;28;121365;-92
2022/01/04 01:31:57;;;;;;;6.20;1.90;;;;;;;12.76;65.60;99148.84;4936415;28;122844;-91
2022/01/04 01:34:23;;;;;;;7.63;2.00;;;;;;;12.55;65.01;99120.16;4899203;28;121023;-91
2022/01/04 01:36:50;;;;;;;11.80;2.40;;;;;;;12.57;65.82;99125.91;4915672;28;122046;-92
2022/01/04 01:39:16;;;;;;;8.60;2.15;;;;;;;12.63;65.67;99142.38;4932020;28;119655;-91
2022/01/04 01:41:42;;;;;;;9.82;2.35;;;;;;;12.53;65.55;99130.88;4897797;28;121209;-92
2022/01/04 01:44:07;;;;;;;12.98;2.78;;;;;;;12.54;65.41;99137.91;4945615;28;121880;-91
2022/01/04 01:46:33;;;;;;;11.57;2.33;;;;;;;12.49;65.93;99127.63;4931349;28;118985;-90
2022/01/04 01:48:59;;;;;;;11.98;2.70;;;;;;;12.25;66.00;99098.63;4931671;28;120690;-91
2022/01/04 01:51:28;;;;;;;11.68;2.83;;;;;;;12.42;66.17;99122.63;4930886;28;121794;-91
2022/01/04 01:53:53;;;;;;;10.73;2.28;;;;;;;12.47;66.18;99132.88;4950363;28;120792;-92
2022/01/04 01:56:19;;;;;;;11.75;2.35;;;;;;;12.46;66.76;99132.13;4931470;28;121898;-92
2022/01/04 01:58:45;;;;;;;11.27;2.53;;;;;;;12.41;66.28;99118.38;4915795;28;119751;-91
2022/01/04 02:01:11;;;;;;;10.85;2.42;;;;;;;12.12;66.43;99073.66;4930726;28;119811;-92
2022/01/04 02:03:38;;;;;;;10.60;2.60;;;;;;;12.47;66.22;99128.13;4905495;28;121859;-91
2022/01/04 02:06:04;;;;;;;10.77;2.75;;;;;;;12.45;65.88;99125.13;4930324;28;119340;-92
2022/01/04 02:08:30;;;;;;;10.55;2.10;;;;;;;12.37;66.22;99113.16;4916704;28;121968;-92
2022/01/04 02:10:58;;;;;;;13.70;2.83;;;;;;;12.38;66.24;99119.41;4913929;28;123397;-92
2022/01/04 02:13:25;;;;;;;9.23;2.10;;;;;;;12.32;65.73;99115.91;4901578;28;119813;-92
2022/01/04 02:15:52;;;;;;;10.35;2.30;;;;;;;12.31;66.34;99112.41;4930822;28;121805;-91
2022/01/04 02:18:17;;;;;;;8.25;1.85;;;;;;;12.41;66.66;99118.38;4932145;28;119521;-91
2022/01/04 02:20:43;;;;;;;9.80;1.90;;;;;;;12.40;66.31;99108.66;4914778;28;121789;-92
2022/01/04 02:23:09;;;;;;;9.10;1.83;;;;;;;12.40;66.85;99109.41;4913655;28;123228;-91
2022/01/04 02:25:35;;;;;;;6.28;1.70;;;;;;;12.38;66.57;99100.91;4933127;28;119434;-91
2022/01/04 02:28:01;;;;;;;8.82;1.85;;;;;;;12.31;66.41;99092.41;4927464;28;120201;-91
2022/01/04 02:30:27;;;;;;;10.63;2.33;;;;;;;12.26;66.37;99078.16;4928923;28;120569;-91
2022/01/04 02:32:55;;;;;;;7.80;1.90;;;;;;;12.23;66.68;99083.91;4914212;28;119346;-93
2022/01/04 02:35:25;;;;;;;9.20;2.15;;;;;;;12.37;66.87;99118.66;4927022;28;121048;-92
2022/01/04 02:37:59;;;;;;;6.60;1.88;;;;;;;12.38;67.33;99105.66;4895249;28;119635;-91
2022/01/04 02:40:26;;;;;;;4.65;1.40;;;;;;;12.28;66.99;99097.63;4928916;28;121874;-91
2022/01/04 02:42:52;;;;;;;5.32;1.48;;;;;;;12.10;66.32;99076.16;4929559;28;123396;-92
2022/01/04 02:45:18;;;;;;;4.90;1.65;;;;;;;12.25;66.50;99101.38;4931546;28;119490;-91
2022/01/04 02:47:44;;;;;;;7.40;1.83;;;;;;;11.84;66.85;99034.44;4930068;28;122095;-92
2022/01/04 02:50:10;;;;;;;7.38;1.58;;;;;;;12.03;66.07;99076.63;4930836;28;120115;-91
2022/01/04 02:52:38;;;;;;;5.47;1.20;;;;;;;12.09;66.40;99073.91;4928714;28;119082;-91
2022/01/04 02:55:09;;;;;;;3.55;1.10;;;;;;;12.22;66.62;99090.66;4929668;28;119193;-92
2022/01/04 02:57:35;;;;;;;4.80;1.42;;;;;;;12.18;66.97;99079.91;4917038;28;120027;-91
2022/01/04 03:00:04;;;;;;;5.10;1.23;;;;;;;12.15;66.62;99063.66;4945841;28;119750;-91
2022/01/04 03:02:29;;;;;;;5.30;1.10;;;;;;;12.08;66.27;99042.19;4909184;28;123077;-91
2022/01/04 03:04:55;;;;;;;5.80;1.40;;;;;;;12.18;67.47;99057.91;4931958;28;119325;-91
2022/01/04 03:07:21;;;;;;;4.28;1.30;;;;;;;11.98;66.89;99028.69;4930360;28;120882;-92
2022/01/04 03:09:47;;;;;;;4.35;1.08;;;;;;;12.09;66.73;99049.94;4912745;28;122178;-91
2022/01/04 03:12:12;;;;;;;3.42;0.90;;;;;;;12.05;66.37;99032.91;4897328;28;119271;-91
2022/01/04 03:14:38;;;;;;;7.10;1.70;;;;;;;12.16;66.41;99046.69;4917449;28;120672;-91
2022/01/04 03:17:04;;;;;;;5.28;1.58;;;;;;;12.16;66.31;99038.44;4925994;28;122719;-90
2022/01/04 03:19:30;;;;;;;4.43;1.20;;;;;;;12.09;66.14;99025.19;4916614;28;119601;-91
2022/01/04 03:21:55;;;;;;;4.07;1.00;;;;;;;11.74;66.07;98975.47;4913488;28;121793;-91
2022/01/04 03:24:21;;;;;;;7.63;1.33;;;;;;;11.91;66.51;98992.72;4932265;28;119395;-91
2022/01/04 03:26:47;;;;;;;3.03;1.02;;;;;;;12.13;66.99;99022.94;4915861;28;119773;-91
2022/01/04 03:29:15;;;;;;;4.47;1.20;;;;;;;12.13;66.70;99017.44;4906963;28;121665;-90
2022/01/04 03:31:44;;;;;;;4.53;1.10;;;;;;;12.11;66.20;99011.69;4932868;28;118639;-91
2022/01/04 03:34:10;;;;;;;3.95;1.27;;;;;;;12.09;67.07;99016.97;4897633;28;121006;-90
2022/01/04 03:36:36;;;;;;;2.92;0.98;;;;;;;12.13;66.65;99016.69;4896631;28;121559;-91
2022/01/04 03:39:07;;;;;;;5.13;1.13;;;;;;;12.11;66.50;99014.44;4913702;28;119854;-91
2022/01/04 03:41:39;;;;;;;5.13;1.00;;;;;;;12.05;66.46;98991.69;4914687;28;120888;-90
2022/01/04 03:44:06;;;;;;;2.17;1.00;;;;;;;11.84;66.72;98966.50;4928765;28;120528;-91
2022/01/04 03:46:33;;;;;;;4.53;1.13;;;;;;;11.90;66.82;98978.25;4898232;28;119703;-91
2022/01/04 03:48:58;;;;;;;5.53;1.30;;;;;;;11.80;66.75;98963.25;4915292;28;122032;-91
2022/01/04 03:51:24;;;;;;;6.13;1.40;;;;;;;12.00;67.36;98992.47;4899596;28;119534;-90
2022/01/04 03:53:50;;;;;;;6.80;1.30;;;;;;;12.11;67.23;99000.72;4924978;28;119397;-91
2022/01/04 03:56:16;;;;;;;4.82;1.20;;;;;;;12.12;67.44;99007.69;4914107;28;121983;-91
2022/01/04 03:58:41;;;;;;;3.67;1.00;;;;;;;12.05;67.98;98988.19;4914848;28;119700;-91
2022/01/04 04:01:07;;;;;;;4.05;1.10;;;;;;;12.14;67.18;98996.97;4912992;28;120231;-91
2022/01/04 04:03:33;;;;;;;4.78;1.13;;;;;;;12.16;67.23;98988.97;4936253;28;122164;-90
2022/01/04 04:05:59;;;;;;;5.15;1.30;;;;;;;12.10;66.70;98973.72;4909546;28;121070;-92
2022/01/04 04:08:25;;;;;;;4.35;1.23;;;;;;;12.10;66.72;98974.47;4917679;28;122458;-91
2022/01/04 04:10:51;;;;;;;9.52;1.88;;;;;;;11.91;66.50;98948.75;4948563;28;120026;-92
2022/01/04 04:13:17;;;;;;;9.40;1.80;;;;;;;12.15;66.88;98981.97;4933858;28;120003;-92
2022/01/04 04:15:44;;;;;;;5.05;1.15;;;;;;;12.08;66.71;98968.75;4933461;28;120038;-91
2022/01/04 04:18:11;;;;;;;7.65;1.65;;;;;;;12.18;67.25;98975.47;4902372;28;119537;-92
2022/01/04 04:20:38;;;;;;;5.75;1.48;;;;;;;12.10;67.65;98957.25;4948647;28;121143;-91
2022/01/04 04:23:05;;;;;;;6.78;1.50;;;;;;;12.22;68.17;98959.47;4939701;28;122955;-91
2022/01/04 04:25:31;;;;;;;6.47;1.58;;;;;;;12.22;67.90;98956.72;4916681;28;121031;-91
2022/01/04 04:27:57;;;;;;;5.22;1.33;;;;;;;12.22;67.33;98956.72;4907095;28;121955;-91
2022/01/04 04:30:23;;;;;;;9.13;1.60;;;;;;;12.21;68.88;98959.97;4933692;28;119568;-91
2022/01/04 04:32:48;;;;;;;7.57;1.65;;;;;;;12.07;68.51;98930.78;4934972;28;119787;-91
2022/01/04 04:35:14;;;;;;;7.82;1.73;;;;;;;12.27;68.34;98953.19;4916306;28;121534;-91
2022/01/04 04:37:40;;;;;;;9.60;2.00;;;;;;;12.23;68.20;98946.47;4917129;28;119013;-91
2022/01/04 04:40:07;;;;;;;10.57;2.78;;;;;;;12.15;67.89;98918.75;4916575;28;120160;-92
2022/01/04 04:42:33;;;;;;;10.13;2.17;;;;;;;12.40;67.57;98960.19;4908816;28;121840;-91
2022/01/04 04:44:59;;;;;;;12.05;2.53;;;;;;;12.36;69.32;98946.69;4930230;28;119612;-91
2022/01/04 04:47:25;;;;;;;11.73;2.17;;;;;;;12.36;69.53;98929.44;4913255;28;122074;-90
2022/01/04 04:49:52;;;;;;;11.20;2.40;;;;;;;12.44;67.80;98941.41;4923640;28;119548;-91
2022/01/04 04:52:18;;;;;;;11.43;2.53;;;;;;;12.44;67.23;98941.41;4921804;28;120550;-91
2022/01/04 04:54:43;;;;;;;11.05;2.22;;;;;;;12.40;66.83;98927.19;4925601;28;121566;-91
2022/01/04 04:57:09;;;;;;;14.82;3.00;;;;;;;12.41;67.01;98934.19;4943516;28;119820;-90
2022/01/04 04:59:35;;;;;;;11.60;2.47;;;;;;;12.40;66.21;98925.19;4915438;28;121312;-91
2022/01/04 05:02:01;;;;;;;13.85;2.30;;;;;;;12.37;66.36;98922.69;4938376;28;120171;-91
2022/01/04 05:04:27;;;;;;;6.65;1.70;;;;;;;12.21;65.89;98905.75;4932170;28;119358;-90
2022/01/04 05:06:53;;;;;;;5.13;1.55;;;;;;;12.24;64.54;98923.22;4951199;28;119417;-91
2022/01/04 05:09:19;;;;;;;4.78;1.70;;;;;;;11.92;64.73;98887.06;4948870;28;118798;-91
2022/01/04 05:11:45;;;;;;;7.57;1.60;;;;;;;12.04;64.58;98916.00;4931157;28;119588;-90
2022/01/04 05:14:11;;;;;;;7.25;1.60;;;;;;;11.90;64.85;98911.56;4915892;28;122125;-91
2022/01/04 05:16:36;;;;;;;7.82;1.63;;;;;;;11.65;64.77;98878.34;4911967;28;119348;-92
2022/01/04 05:19:03;;;;;;;5.22;1.42;;;;;;;11.90;64.50;98925.28;4932496;28;120772;-91
2022/01/04 05:21:29;;;;;;;4.85;1.67;;;;;;;11.60;65.07;98887.34;4925624;28;119966;-91
2022/01/04 05:23:54;;;;;;;4.35;1.20;;;;;;;11.72;64.80;98909.28;4933000;28;118647;-91
2022/01/04 05:26:21;;;;;;;9.40;1.25;;;;;;;11.68;64.63;98913.03;4924414;28;120391;-90
2022/01/04 05:28:47;;;;;;;4.40;1.30;;;;;;;11.61;64.29;98918.28;4935271;28;122073;-91
2022/01/04 05:31:13;;;;;;;5.78;1.20;;;;;;;11.34;64.74;98878.59;4932945;28;119982;-91
2022/01/04 05:33:39;;;;;;;4.47;0.98;;;;;;;11.53;65.12;98917.28;4925218;28;121891;-91
2022/01/04 05:36:05;;;;;;;5.32;1.02;;;;;;;11.50;64.80;98921.78;4933611;28;118646;-90
2022/01/04 05:38:32;;;;;;;3.15;1.00;;;;;;;11.34;64.44;98901.28;4921037;28;121908;-92
2022/01/04 05:40:57;;;;;;;6.93;1.42;;;;;;;11.38;64.89;98917.53;4932379;28;119389;-90
2022/01/04 05:43:23;;;;;;;5.63;1.25;;;;;;;11.27;64.95;98912.03;4934426;28;118562;-90
2022/01/04 05:45:49;;;;;;;7.63;1.73;;;;;;;11.25;64.97;98909.03;4936261;28;119466;-90
2022/01/04 05:48:18;;;;;;;5.68;1.30;;;;;;;11.28;64.78;98914.28;4933693;28;120334;-90
2022/01/04 05:50:44;;;;;;;5.28;1.50;;;;;;;10.89;64.88;98862.09;4937806;28;119016;-90
2022/01/04 05:53:10;;;;;;;5.05;1.27;;;;;;;11.23;64.87;98906.78;4930855;28;120041;-91
2022/01/04 05:55:35;;;;;;;6.80;1.15;;;;;;;11.00;65.01;98878.56;4916270;28;119269;-90
2022/01/04 05:58:01;;;;;;;5.90;1.30;;;;;;;11.08;64.50;98893.28;4932741;28;120925;-90
2022/01/04 06:00:27;;;;;;;5.10;1.13;;;;;;;11.14;64.35;98895.31;4932981;28;120357;-91
2022/01/04 06:02:53;;;;;;;6.22;1.42;;;;;;;11.05;64.58;98894.28;4917441;28;119297;-90
2022/01/04 06:05:18;;;;;;;7.45;1.30;;;;;;;11.00;65.06;98892.28;4929211;28;119103;-90
2022/01/04 06:07:44;;;;;;;4.68;1.27;;;;;;;10.92;65.16;98887.78;4918460;28;121725;-89
2022/01/04 06:10:11;;;;;;;5.65;1.35;;;;;;;10.59;64.81;98839.81;4922504;28;118956;-89
2022/01/04 06:15:12;;;;;;;4.53;1.27;;;;;;;10.97;65.42;98889.78;4941472;28;122657;-89
2022/01/04 06:17:43;;;;;;;4.80;1.20;;;;;;;10.97;65.16;98890.53;4936596;28;119328;-90
2022/01/04 06:20:14;;;;;;;6.00;1.23;;;;;;;10.83;65.14;98875.03;4922958;28;120261;-90
2022/01/04 06:22:40;;;;;;;5.60;1.40;;;;;;;10.95;65.09;98884.06;4940305;28;119545;-91
2022/01/04 06:25:09;;;;;;;5.82;1.38;;;;;;;10.86;65.49;98874.03;4945281;28;123215;-90
2022/01/04 06:27:35;;;;;;;5.47;1.40;;;;;;;10.75;65.06;98849.34;4925859;28;121644;-89
2022/01/04 06:30:01;;;;;;;4.63;1.23;;;;;;;10.83;65.16;98861.31;4925335;28;119527;-90
2022/01/04 06:32:26;;;;;;;4.97;1.45;;;;;;;10.82;64.87;98857.09;4935504;28;121011;-90
2022/01/04 06:34:53;;;;;;;4.47;1.35;;;;;;;10.68;65.12;98847.09;4944154;28;119393;-91
2022/01/04 06:37:19;;;;;;;6.82;1.23;;;;;;;10.70;65.08;98839.88;4925111;28;121081;-90
2022/01/04 06:39:45;;;;;;;6.40;1.70;;;;;;;10.86;64.78;98870.53;4908054;28;122284;-90
2022/01/04 06:42:11;;;;;;;4.97;1.50;;;;;;;10.84;65.13;98868.31;4945790;28;119563;-90
2022/01/04 06:44:38;;;;;;;6.07;1.42;;;;;;;10.61;65.09;98826.38;4916428;28;120854;-89
2022/01/04 06:47:04;;;;;;;8.32;1.40;;;;;;;10.83;65.38;98861.31;4924423;28;121723;-88
2022/01/04 06:49:30;;;;;;;6.35;1.23;;;;;;;10.65;65.17;98837.88;4921426;28;118960;-90
2022/01/04 06:51:56;;;;;;;5.43;1.50;;;;;;;10.68;65.65;98839.63;4942074;28;120565;-89
2022/01/04 06:54:22;;;;;;;5.40;1.60;;;;;;;10.41;65.42;98802.69;4931789;28;123195;-89
2022/01/04 06:56:48;;;;;;;9.52;1.90;;;;;;;10.68;65.81;98830.66;4940581;28;122029;-91
2022/01/04 06:59:14;;;;;;;8.02;1.80;;;;;;;10.81;65.83;98861.06;4945394;28;120467;-89
2022/01/04 07:01:41;;;;;;;7.55;2.20;;;;;;;10.87;65.69;98864.56;4930395;28;118554;-89
2022/01/04 07:04:06;;;;;;;7.75;1.98;;;;;;;10.87;65.77;98861.81;4943936;28;119572;-89
2022/01/04 07:06:32;;;;;;;6.00;1.80;;;;;;;10.69;65.43;98832.16;4926344;28;123181;-89
2022/01/04 07:08:58;;;;;;;7.00;1.65;;;;;;;10.60;65.37;98826.88;4947263;28;118578;-88
2022/01/04 07:11:24;;;;;;;8.82;1.75;;;;;;;10.86;65.48;98863.06;4964001;28;120022;-90
2022/01/04 07:13:50;;;;;;;10.50;2.10;;;;;;;10.86;65.35;98863.06;4923256;28;123503;-88
2022/01/04 07:16:16;;;;;;;7.03;2.17;;;;;;;10.68;65.36;98822.41;4930851;28;118697;-90
2022/01/04 07:18:46;;;;;;;7.15;1.73;;;;;;;10.91;66.27;98853.38;4960117;28;119445;-89
2022/01/04 07:21:13;;;;;;;6.85;1.90;;;;;;;10.90;65.52;98846.41;4924563;28;119145;-89
2022/01/04 07:23:39;;;;;;;10.20;2.17;;;;;;;10.60;65.58;98800.22;4912385;28;122261;-89
2022/01/04 07:26:05;;;;;;;5.57;2.10;;;;;;;10.74;65.20;98818.44;4914414;28;121879;-90
2022/01/04 07:28:31;;;;;;;9.57;2.50;;;;;;;10.47;64.70;98782.75;4908334;28;119775;-90
2022/01/04 07:30:57;;;;;;;6.80;1.80;;;;;;;10.49;64.74;98791.22;4942003;28;119416;-90
2022/01/04 07:33:23;;;;;;;7.60;1.90;;;;;;;10.80;65.04;98821.19;4922994;28;119936;-90
2022/01/04 07:35:49;;;;;;;8.73;2.10;;;;;;;10.62;64.90;98805.19;4923924;28;119279;-89
2022/01/04 07:38:15;;;;;;;7.82;2.30;;;;;;;10.84;65.25;98838.13;4930362;28;120285;-89
2022/01/04 07:40:41;;;;;;;8.30;2.33;;;;;;;10.62;65.43;98816.16;4944434;28;119738;-90
2022/01/04 07:43:06;;;;;;;8.10;2.50;;;;;;;10.88;65.76;98848.84;4959979;28;119029;-89
2022/01/04 07:45:35;;;;;;;10.48;2.42;;;;;;;10.83;65.83;98839.38;4924590;28;121592;-90
2022/01/04 07:48:01;;;;;;;10.27;3.03;;;;;;;10.77;65.91;98827.66;4943785;28;118900;-90
2022/01/04 07:50:27;;;;;;;9.65;2.50;;;;;;;10.81;65.24;98833.66;4923802;28;120905;-91
2022/01/04 07:52:53;;;;;;;7.95;2.63;;;;;;;10.70;64.92;98814.44;4961368;28;120004;-89
2022/01/04 07:59:34;;;;;;;9.85;2.72;;;;;;;10.61;65.18;98809.19;4948326;28;118492;-89
2022/01/04 08:02:00;;;;;;;8.38;2.70;;;;;;;10.81;65.70;98827.41;4917191;28;119849;-89
2022/01/04 08:04:26;;;;;;;10.95;3.33;;;;;;;10.71;65.61;98813.19;4925710;28;119152;-89
2022/01/04 08:06:51;;;;;;;7.68;3.00;;;;;;;10.82;65.15;98831.66;4896907;28;121844;-89
2022/01/04 08:09:21;;;;;;;9.57;3.53;;;;;;;10.77;65.61;98822.19;4921270;28;118948;-89
2022/01/04 08:11:46;;;;;;;8.38;2.50;;;;;;;10.62;65.45;98794.22;4922814;28;119491;-90
2022/01/04 08:14:15;;;;;;;9.55;2.55;;;;;;;10.59;65.83;98795.97;4907246;28;123324;-90
2022/01/04 08:16:40;;;;;;;9.40;2.60;;;;;;;10.50;65.47;98784.50;4942602;28;119155;-89
2022/01/04 08:19:06;;;;;;;6.82;2.53;;;;;;;10.64;65.71;98797.97;4912558;28;119546;-90
2022/01/04 08:21:32;;;;;;;8.23;2.53;;;;;;;10.81;65.81;98828.16;4892944;28;122101;-90
2022/01/04 08:23:58;;;;;;;9.15;2.50;;;;;;;10.60;65.82;98802.19;4931506;28;119385;-90
2022/01/04 08:26:26;;;;;;;8.82;2.70;;;;;;;10.81;65.65;98827.41;4912229;28;120633;-91
2022/01/04 08:28:52;;;;;;;10.18;2.80;;;;;;;10.64;65.21;98797.22;4925754;28;118713;-88
2022/01/04 08:31:17;;;;;;;10.95;3.10;;;;;;;10.82;65.57;98829.66;4907220;28;122083;-90
2022/01/04 08:33:43;;;;;;;7.63;3.08;;;;;;;10.54;65.70;98793.97;4899018;28;121723;-90
2022/01/04 08:36:10;;;;;;;8.27;2.85;;;;;;;10.78;65.78;98820.94;4926725;28;119567;-91
2022/01/04 08:38:39;;;;;;;6.78;2.67;;;;;;;10.71;65.36;98813.19;4931421;28;120488;-90
2022/01/04 08:41:05;;;;;;;7.55;2.85;;;;;;;10.61;65.88;98795.47;4943900;28;118882;-90
2022/01/04 08:43:34;;;;;;;6.00;3.08;;;;;;;10.53;65.46;98776.03;4915772;28;118565;-90
2022/01/04 08:46:00;;;;;;;5.05;2.47;;;;;;;10.79;65.58;98816.94;4927581;28;120629;-88
2022/01/04 09:02:24;;;;;;;2.72;1.08;;;;;;;10.19;65.02;98780.66;4994703;22;119224;-89
2022/01/04 09:51:00;;;;;;;7.53;2.00;;;;;;;10.20;65.43;98797.84;5157369;22;120883;-88
2022/01/04 11:35:57;;;;;;;11.45;2.45;;;;;;;10.37;63.84;98785.69;5046554;22;119688;-91
2022/01/04 11:45:37;;;;;;;7.95;1.40;;;;;;;10.63;64.03;98806.69;4934560;28;118623;-90
2022/01/04 11:48:04;;;;;;;8.18;1.60;;;;;;;10.31;63.59;98754.81;4893749;28;118531;-91
2022/01/04 11:53:34;;;;;;;7.60;1.80;;;;;;;10.39;63.12;98750.31;4975994;22;119372;-90
2022/01/04 11:56:04;;;;;;;5.80;1.50;;;;;;;10.65;63.33;98774.06;4877180;28;121820;-88
2022/01/04 11:59:03;;;;;;;7.47;1.75;;;;;;;10.72;63.62;98779.81;4864594;28;118920;-90
2022/01/04 12:01:30;;;;;;;6.50;1.60;;;;;;;10.47;63.49;98741.63;4898961;28;119383;-90
2022/01/04 12:03:55;;;;;;;8.07;1.80;;;;;;;10.77;63.11;98789.28;4880946;28;121990;-91
2022/01/04 12:06:34;;;;;;;9.13;1.83;;;;;;;10.69;63.31;98764.34;4894301;28;119626;-91
2022/01/04 12:09:00;;;;;;;6.65;1.40;;;;;;;10.54;63.38;98744.63;4860921;28;120977;-90
2022/01/04 12:11:26;;;;;;;7.63;1.58;;;;;;;10.89;63.60;98779.81;4876744;28;122156;-91
2022/01/04 12:17:57;;;;;;;8.32;1.33;;;;;;;10.56;63.95;98724.94;4873476;28;119709;-90
2022/01/04 12:24:20;;;;;;;7.63;1.83;;;;;;;10.59;64.13;98713.72;4940433;22;119336;-89
2022/01/04 12:26:46;;;;;;;8.60;2.03;;;;;;;10.72;63.64;98729.69;4882676;28;121889;-89
2022/01/04 12:29:12;;;;;;;10.20;2.17;;;;;;;11.01;63.76;98767.59;4887074;28;118703;-90
2022/01/04 12:32:09;;;;;;;6.55;1.83;;;;;;;11.00;62.88;98762.59;4880707;28;118596;-89
2022/01/04 12:34:48;;;;;;;8.23;1.75;;;;;;;10.81;62.74;98734.94;4900308;28;119476;-90
2022/01/04 12:37:19;;;;;;;10.98;1.98;;;;;;;10.96;62.32;98767.59;4905772;28;118670;-92
2022/01/04 12:39:47;;;;;;;10.10;1.80;;;;;;;10.94;62.73;98768.09;4920373;28;121064;-89
2022/01/04 12:42:18;;;;;;;7.38;1.90;;;;;;;10.93;62.48;98758.38;4893064;28;122035;-89
2022/01/04 12:44:51;;;;;;;5.20;1.40;;;;;;;10.84;62.47;98739.41;4904336;28;119627;-91
2022/01/04 12:47:18;;;;;;;8.27;2.15;;;;;;;10.86;62.89;98747.88;4905364;28;119463;-92
2022/01/04 12:49:44;;;;;;;5.05;1.80;;;;;;;10.91;62.97;98758.13;4905064;28;119800;-91
2022/01/04 12:52:10;;;;;;;8.88;1.70;;;;;;;10.90;63.57;98764.88;4903523;28;119555;-88
2022/01/04 12:54:38;;;;;;;9.30;1.95;;;;;;;10.98;63.08;98770.59;4910456;28;121618;-90
2022/01/04 12:57:11;;;;;;;10.70;2.10;;;;;;;11.00;62.67;98757.88;4895855;28;118596;-90
2022/01/04 13:03:50;;;;;;;8.05;2.95;;;;;;;10.89;62.17;98762.63;4929589;28;119398;-90
2022/01/04 13:06:16;;;;;;;10.93;2.25;;;;;;;10.47;62.00;98714.97;4898536;28;118666;-89
2022/01/04 13:08:56;;;;;;;9.38;2.08;;;;;;;10.85;62.11;98770.31;4896120;28;121413;-90
2022/01/04 13:11:23;;;;;;;7.63;1.63;;;;;;;10.65;61.61;98747.41;4893843;28;119753;-90
2022/01/04 13:18:01;;;;;;;8.52;1.90;;;;;;;10.73;62.20;98766.84;4933031;28;119430;-90
2022/01/04 13:20:33;;;;;;;11.38;2.35;;;;;;;10.64;61.76;98754.09;4891701;28;119879;-91
2022/01/04 13:23:06;;;;;;;10.38;2.30;;;;;;;10.71;62.54;98759.13;4897132;28;121177;-90
2022/01/04 13:25:31;;;;;;;9.20;2.23;;;;;;;10.72;62.63;98768.09;4898211;28;121648;-91
2022/01/04 13:28:02;;;;;;;12.43;2.03;;;;;;;10.74;62.53;98760.84;4914807;28;118619;-89
2022/01/04 13:30:29;;;;;;;15.07;2.58;;;;;;;10.73;62.13;98761.34;4883705;28;121720;-91
2022/01/04 13:32:58;;;;;;;13.50;2.25;;;;;;;10.69;62.25;98755.38;4897578;28;119372;-91
2022/01/04 13:39:29;;;;;;;14.20;2.20;;;;;;;10.57;62.57;98745.63;4993317;22;120179;-89
2022/01/04 13:41:55;;;;;;;11.75;2.25;;;;;;;10.29;62.15;98707.22;4917893;28;119445;-91
2022/01/04 13:44:20;;;;;;;8.13;2.22;;;;;;;10.60;62.29;98758.34;4912437;28;121491;-90
2022/01/04 13:46:46;;;;;;;12.07;2.30;;;;;;;10.52;61.89;98751.84;4905806;28;121975;-90
2022/01/04 13:49:12;;;;;;;8.40;2.22;;;;;;;10.53;62.23;98764.31;4933291;28;118590;-89
2022/01/04 13:54:30;;;;;;;13.25;2.20;;;;;;;10.15;62.27;98725.31;4995321;22;119448;-91
2022/01/04 13:57:10;;;;;;;10.45;2.35;;;;;;;10.39;62.11;98777.72;4901882;28;120428;-88
2022/01/04 13:59:36;;;;;;;11.30;2.50;;;;;;;10.22;62.03;98754.28;4899528;28;120445;-90
2022/01/04 14:02:01;;;;;;;13.02;2.72;;;;;;;10.21;61.88;98752.78;4900631;28;118609;-90
2022/01/04 18:44:26;;;;;;;15.88;3.55;;;;;;;8.53;61.29;98790.00;5164211;22;120437;-92
2022/01/04 18:46:53;;;;;;;15.40;3.63;;;;;;;8.27;61.23;98755.16;4892768;28;121228;-92
2022/01/04 18:49:20;;;;;;;18.73;4.00;;;;;;;8.30;61.03;98751.47;4900388;28;121998;-93
2022/01/04 18:51:46;;;;;;;15.98;4.18;;;;;;;8.40;61.09;98773.19;4923423;28;119299;-93
2022/01/04 18:54:13;;;;;;;22.27;3.97;;;;;;;8.40;61.59;98762.28;4893283;28;118559;-94
2022/01/04 18:56:40;;;;;;;18.13;5.30;;;;;;;8.40;61.78;98765.75;4889263;28;121374;-94
2022/01/04 18:59:06;;;;;;;16.52;5.93;;;;;;;8.46;61.03;98761.09;4873959;28;122960;-94
2022/01/04 19:01:32;;;;;;;18.10;5.00;;;;;;;8.71;60.84;98797.84;4875337;28;119274;-94
2022/01/04 19:04:00;;;;;;;23.33;6.05;;;;;;;8.48;60.70;98752.41;4882517;28;122645;-95
2022/01/04 19:06:26;;;;;;;18.02;5.28;;;;;;;8.59;61.22;98777.88;4867092;28;121680;-95
2022/01/04 19:08:51;;;;;;;14.32;4.15;;;;;;;8.64;61.75;98779.16;4868062;28;120756;-95
2022/01/04 19:11:17;;;;;;;17.60;4.80;;;;;;;8.35;61.05;98733.66;4881958;28;121445;-93
2022/01/04 19:13:43;;;;;;;16.52;4.78;;;;;;;8.68;61.22;98776.94;4870537;28;119284;-94
2022/01/04 19:16:12;;;;;;;18.00;4.65;;;;;;;8.77;62.28;98781.50;4897537;28;119117;-94
2022/01/04 19:18:38;;;;;;;20.92;4.82;;;;;;;8.77;61.46;98789.72;4902271;28;120145;-94
2022/01/04 19:21:05;;;;;;;20.98;4.18;;;;;;;8.87;62.59;98797.25;4868920;28;119856;-95
2022/01/04 19:23:32;;;;;;;18.88;4.72;;;;;;;8.68;62.27;98748.88;4891050;28;121067;-94
2022/01/04 19:25:58;;;;;;;23.02;5.22;;;;;;;8.92;61.86;98776.66;4884032;28;121613;-93
2022/01/04 19:28:25;;;;;;;26.30;5.57;;;;;;;8.80;61.71;98756.69;4862145;28;118634;-94